サル島 の空港の天気 - METARとTAF

アミルカル・カブラル国際空港 ( GVAC / SID ) - カーボベルデ サル島
飛行場実況気象(Metar)
観測時間05/29 16:00 CVT (05/29 17:00 UTC)
風向・風速北北東 10m/s
視程10km以上
天気現象
少しの雲 雲底高度 400m
気温28℃
湿度55%
気圧1012hPa
METARGVAC 291700Z 03019KT 9999 FEW013 28/18 Q1012 NOSIG
過去の天気等 Google飛行場航空写真 Wunderground天気予報

過去48時間のMETAR

飛行場予報(TAF)
発表時間: 5/29 10:00 CVT (5/29 11:00 UTC)
予報対象時間: 29日11時 CVT ~ 30日17時 CVT
風向・風速北北東 9m/s
視程10km以上
全天の4割程度の雲 雲底高度 400m
30日1時 CVT ~ 30日5時 CVT に 確率 30% で一時的に
風向・風速北北東 4m/s
TAF GVAC 291100Z 2912/3018 03018KT 9999 SCT013
PROB30 TEMPO 3002/3006 03008KT